Time;durP1;ratioP1;P1;durP2;ratioP2;P2;SDS_P1;SDS_P2;PMS_P1;PMS_P2;Temp;Humidity;BMP_temperature;BMP_pressure;BME280_temperature;BME280_humidity;BME280_pressure;Samples;Min_cycle;Max_cycle;Signal;HPM_P1;HPM_P2
2022/11/13 00:01:47;;;;;;;20.43;12.97;;;;;;;9.05;85.96;102167.80;1697891;84;21284;-77
2022/11/13 00:04:32;;;;;;;18.27;11.63;;;;;;;9.02;85.93;102165.19;1697626;84;21969;-77
2022/11/13 00:07:18;;;;;;;19.97;12.90;;;;;;;9.04;85.99;102179.59;1697733;84;21059;-77
2022/11/13 00:10:04;;;;;;;18.80;12.90;;;;;;;9.04;86.16;102176.53;1697776;84;21020;-77
2022/11/13 00:12:50;;;;;;;20.50;12.73;;;;;;;9.02;85.96;102157.78;1697890;84;20984;-77
2022/11/13 00:15:35;;;;;;;24.40;13.63;;;;;;;9.01;86.00;102164.77;1697758;84;21016;-77
2022/11/13 00:18:20;;;;;;;22.63;13.40;;;;;;;9.01;86.13;102168.69;1697913;84;21127;-77
2022/11/13 00:21:10;;;;;;;20.40;13.17;;;;;;;9.00;86.31;102178.70;1697695;84;21004;-77
2022/11/13 00:23:56;;;;;;;21.45;13.15;;;;;;;9.00;86.57;102173.47;1682485;84;21097;-77
2022/11/13 00:26:42;;;;;;;19.90;13.13;;;;;;;9.03;86.57;102168.23;1701220;84;21541;-77
2022/11/13 00:29:27;;;;;;;21.43;13.80;;;;;;;9.00;86.41;102170.85;1697757;84;21023;-77
2022/11/13 00:32:12;;;;;;;23.57;14.13;;;;;;;9.02;86.54;102172.17;1697812;84;22038;-77
2022/11/13 00:34:58;;;;;;;22.90;14.10;;;;;;;9.02;86.57;102169.56;1697794;84;21069;-78
2022/11/13 00:37:43;;;;;;;20.20;13.00;;;;;;;9.04;86.71;102173.05;1697807;84;21040;-78
2022/11/13 00:40:28;;;;;;;19.93;13.77;;;;;;;9.05;86.62;102166.93;1697842;84;20980;-77
2022/11/13 00:43:14;;;;;;;22.20;14.43;;;;;;;9.04;86.56;102163.89;1697789;84;21023;-77
2022/11/13 00:45:59;;;;;;;23.83;14.27;;;;;;;9.06;86.68;102174.78;1697836;84;21218;-77
2022/11/13 00:48:45;;;;;;;22.13;15.97;;;;;;;9.05;86.66;102160.39;1697686;84;20961;-77
2022/11/13 00:51:31;;;;;;;22.27;14.90;;;;;;;9.06;86.51;102155.58;1697737;84;21000;-77
2022/11/13 00:54:16;;;;;;;22.40;15.77;;;;;;;9.07;86.71;102161.27;1697816;84;21008;-77
2022/11/13 00:57:02;;;;;;;24.00;15.47;;;;;;;9.10;86.73;102160.81;1697811;84;21278;-77
2022/11/13 00:59:47;;;;;;;23.43;15.07;;;;;;;9.10;86.75;102149.03;1697812;84;21941;-77
2022/11/13 01:02:32;;;;;;;23.07;14.20;;;;;;;9.09;86.72;102149.03;1697613;84;21036;-77
2022/11/13 01:05:18;;;;;;;22.73;15.60;;;;;;;9.10;86.75;102141.19;1697792;84;21064;-77
2022/11/13 01:08:05;;;;;;;23.53;15.77;;;;;;;9.07;86.66;102141.20;1697834;84;21535;-77
2022/11/13 01:10:50;;;;;;;24.07;15.27;;;;;;;9.06;86.64;102133.34;1697800;84;21023;-78
2022/11/13 01:13:36;;;;;;;26.10;15.40;;;;;;;9.04;86.64;102128.14;1697740;84;21230;-77
2022/11/13 01:16:24;;;;;;;23.60;16.03;;;;;;;9.03;86.71;102128.99;1697742;84;21047;-77
2022/11/13 01:19:09;;;;;;;25.00;15.20;;;;;;;9.04;86.93;102127.27;1697689;84;21002;-77
2022/11/13 01:21:55;;;;;;;24.17;15.63;;;;;;;9.02;86.86;102124.64;1697653;84;21005;-78
2022/11/13 01:24:40;;;;;;;26.93;15.67;;;;;;;9.04;87.01;102125.97;1680520;84;20992;-77
2022/11/13 01:27:25;;;;;;;24.03;16.13;;;;;;;9.07;87.22;102122.03;1697749;84;21156;-77
2022/11/13 01:30:11;;;;;;;23.03;16.07;;;;;;;9.06;86.91;102115.94;1697555;84;21037;-77
2022/11/13 01:32:56;;;;;;;25.93;14.93;;;;;;;9.05;86.87;102118.54;1697695;84;21000;-78
2022/11/13 01:35:42;;;;;;;25.27;16.07;;;;;;;9.05;87.02;102117.23;1697785;84;21008;-78
2022/11/13 01:38:27;;;;;;;27.03;15.93;;;;;;;9.04;86.94;102117.67;1697745;84;21071;-78
2022/11/13 01:41:21;;;;;;;24.83;15.87;;;;;;;9.03;86.92;102114.61;1697729;84;21169;-78
2022/11/13 01:44:14;;;;;;;25.83;14.97;;;;;;;9.04;87.04;102105.91;1697805;84;21012;-77
2022/11/13 01:46:59;;;;;;;22.63;14.57;;;;;;;9.05;87.06;102102.84;1697717;84;21016;-78
2022/11/13 01:49:46;;;;;;;20.93;14.77;;;;;;;9.08;87.11;102109.38;1703549;83;21071;-78
2022/11/13 01:52:36;;;;;;;21.67;13.97;;;;;;;9.07;87.00;102095.88;1709838;83;21003;-78
2022/11/13 01:55:21;;;;;;;;;;;;;;;9.05;86.79;102094.55;1712403;83;22141;-78
2022/11/13 01:58:09;;;;;;;19.53;13.67;;;;;;;9.05;87.08;102087.16;1709810;84;20131;-78
2022/11/13 02:00:55;;;;;;;21.07;14.10;;;;;;;9.07;87.03;102082.34;1709765;83;20984;-77
2022/11/13 02:03:40;;;;;;;21.83;13.33;;;;;;;9.10;87.09;102083.64;1709704;83;21035;-77
2022/11/13 02:06:30;;;;;;;20.97;13.23;;;;;;;9.09;86.99;102086.25;1709830;84;21067;-77
2022/11/13 02:09:19;;;;;;;20.50;13.45;;;;;;;9.07;86.73;102084.10;1709981;83;21560;-78
2022/11/13 02:12:08;;;;;;;18.90;13.40;;;;;;;9.05;86.76;102078.86;1709811;83;21067;-77
2022/11/13 02:14:56;;;;;;;20.37;13.13;;;;;;;9.04;86.90;102074.96;1709805;83;21070;-77
2022/11/13 02:17:50;;;;;;;21.37;12.97;;;;;;;9.05;87.05;102074.08;1709873;83;21015;-77
2022/11/13 02:20:46;;;;;;;17.93;12.30;;;;;;;9.06;87.00;102070.57;1709902;83;21211;-77
2022/11/13 02:23:51;;;;;;;22.60;12.73;;;;;;;9.07;87.05;102067.10;1696471;84;21343;-77
2022/11/13 02:26:37;;;;;;;19.77;12.90;;;;;;;9.10;87.23;102066.64;1698806;83;21022;-77
2022/11/13 02:29:22;;;;;;;18.77;12.83;;;;;;;9.12;87.19;102064.89;1679836;85;21074;-77
2022/11/13 02:32:08;;;;;;;20.10;11.77;;;;;;;9.13;87.12;102074.91;1679857;85;21007;-77
2022/11/13 02:34:53;;;;;;;20.50;12.90;;;;;;;9.13;87.17;102067.93;1679946;85;21018;-77
2022/11/13 02:37:39;;;;;;;20.03;11.83;;;;;;;9.14;87.13;102067.08;1679898;85;21109;-77
2022/11/13 02:40:24;;;;;;;19.17;12.40;;;;;;;9.17;87.23;102066.16;1679809;85;21063;-77
2022/11/13 02:43:10;;;;;;;20.30;12.37;;;;;;;9.20;87.21;102071.41;1679732;85;21022;-77
2022/11/13 02:45:55;;;;;;;18.43;12.40;;;;;;;9.19;86.96;102075.33;1679921;85;20991;-77
2022/11/13 02:48:41;;;;;;;17.13;11.90;;;;;;;9.16;86.71;102067.91;1679869;85;21315;-77
2022/11/13 02:51:26;;;;;;;16.83;11.73;;;;;;;9.13;86.81;102068.38;1679820;85;21038;-77
2022/11/13 02:54:12;;;;;;;15.93;11.17;;;;;;;9.14;87.00;102063.15;1679831;85;21007;-77
2022/11/13 02:56:57;;;;;;;17.83;12.33;;;;;;;9.16;86.79;102065.30;1679040;84;21067;-77
2022/11/13 02:59:43;;;;;;;15.23;11.50;;;;;;;9.16;86.72;102071.84;1722632;82;21062;-77
2022/11/13 03:02:28;;;;;;;18.20;12.20;;;;;;;9.15;86.75;102059.64;1722677;81;21030;-77
2022/11/13 03:05:13;;;;;;;17.57;12.03;;;;;;;9.13;86.70;102064.00;1722658;82;21145;-77
2022/11/13 03:07:59;;;;;;;15.90;10.53;;;;;;;9.10;86.43;102057.48;1722574;81;20995;-77
2022/11/13 03:10:45;;;;;;;17.43;11.67;;;;;;;9.07;86.50;102056.64;1722677;82;21499;-77
2022/11/13 03:13:30;;;;;;;17.17;11.83;;;;;;;9.05;86.65;102061.86;1722638;82;21018;-77
2022/11/13 03:16:17;;;;;;;18.37;11.90;;;;;;;9.06;86.55;102058.80;1723012;82;21039;-78
2022/11/13 03:19:03;;;;;;;19.33;12.60;;;;;;;9.04;86.46;102053.59;1722639;82;21148;-77
2022/11/13 03:21:49;;;;;;;16.97;12.60;;;;;;;9.05;86.53;102051.84;1722600;81;21046;-77
2022/11/13 03:24:37;;;;;;;18.20;12.60;;;;;;;9.05;86.30;102050.53;1722557;81;21018;-77
2022/11/13 03:27:23;;;;;;;21.57;13.20;;;;;;;9.02;86.15;102050.55;1722841;82;21030;-77
2022/11/13 03:30:10;;;;;;;18.30;13.07;;;;;;;9.02;86.19;102048.80;1722614;81;21011;-77
2022/11/13 03:32:56;;;;;;;18.40;12.73;;;;;;;9.00;86.00;102052.30;1722618;81;21160;-77
2022/11/13 03:35:42;;;;;;;18.57;12.57;;;;;;;8.97;86.00;102048.39;1722555;81;21039;-77
2022/11/13 03:38:27;;;;;;;20.93;13.53;;;;;;;8.98;85.97;102050.11;1722562;81;21031;-77
2022/11/13 03:41:15;;;;;;;20.80;13.43;;;;;;;8.95;85.86;102052.30;1722692;82;20999;-77
2022/11/13 03:44:01;;;;;;;20.67;13.67;;;;;;;8.93;85.98;102050.16;1722629;82;21059;-77
2022/11/13 03:46:46;;;;;;;19.93;13.23;;;;;;;8.93;86.04;102048.84;1722598;82;22096;-77
2022/11/13 03:49:32;;;;;;;19.17;13.80;;;;;;;8.93;86.18;102043.17;1721943;81;21018;-77
2022/11/13 03:52:17;;;;;;;21.53;13.77;;;;;;;8.93;85.98;102047.09;1717319;82;21095;-77
2022/11/13 03:55:03;;;;;;;19.83;13.40;;;;;;;8.91;85.96;102044.91;1717601;82;21032;-77
2022/11/13 03:57:48;;;;;;;20.30;14.33;;;;;;;8.91;85.84;102044.05;1717569;82;21641;-77
2022/11/13 04:00:35;;;;;;;18.53;13.90;;;;;;;8.85;85.83;102045.39;1717590;82;21312;-77
2022/11/13 04:03:20;;;;;;;20.03;13.87;;;;;;;8.85;86.03;102047.56;1717563;82;20931;-77
2022/11/13 04:06:05;;;;;;;23.43;15.13;;;;;;;8.85;85.88;102042.33;1717572;82;21078;-77
2022/11/13 04:08:52;;;;;;;21.10;14.17;;;;;;;8.81;85.61;102043.23;1717583;82;21509;-77
2022/11/13 04:11:38;;;;;;;20.63;14.67;;;;;;;8.79;85.84;102035.82;1717825;82;21078;-77
2022/11/13 04:14:23;;;;;;;21.20;14.23;;;;;;;8.78;85.79;102034.06;1717563;82;21150;-77
2022/11/13 04:17:09;;;;;;;22.33;14.30;;;;;;;8.78;85.97;102034.51;1717577;82;21437;-77
2022/11/13 04:19:54;;;;;;;20.43;14.77;;;;;;;8.78;85.88;102031.45;1717531;82;21023;-78
2022/11/13 04:22:40;;;;;;;21.23;13.70;;;;;;;8.76;85.66;102037.14;1717608;82;21019;-77
2022/11/13 04:25:26;;;;;;;22.27;14.60;;;;;;;8.72;85.50;102036.70;1717639;82;21030;-78
2022/11/13 04:28:11;;;;;;;22.60;14.83;;;;;;;8.66;85.47;102034.98;1717580;82;21133;-77
2022/11/13 04:30:57;;;;;;;21.37;14.30;;;;;;;8.65;85.63;102037.17;1717555;82;21540;-77
2022/11/13 04:33:42;;;;;;;21.90;14.20;;;;;;;8.66;85.62;102039.34;1717552;82;21055;-77
2022/11/13 04:36:28;;;;;;;21.40;14.83;;;;;;;8.62;85.59;102030.65;1717569;82;21034;-77
2022/11/13 04:39:14;;;;;;;20.23;13.87;;;;;;;8.64;85.81;102024.95;1717575;82;21026;-77
2022/11/13 04:45:03;;;;;;;20.20;13.90;;;;;;;8.62;85.62;102029.34;1717449;82;21043;-76
2022/11/13 04:47:50;;;;;;;25.73;14.63;;;;;;;8.60;85.80;102027.16;1717579;82;21508;-76
2022/11/13 04:50:36;;;;;;;18.80;13.67;;;;;;;8.61;85.77;102024.97;1717537;82;21090;-77
2022/11/13 04:53:21;;;;;;;21.13;14.13;;;;;;;8.60;85.69;102024.99;1717664;82;21026;-76
2022/11/13 04:56:06;;;;;;;21.47;13.43;;;;;;;8.58;85.74;102026.73;1717537;82;21969;-76
2022/11/13 04:58:52;;;;;;;17.07;12.60;;;;;;;8.55;85.71;102028.05;1717506;82;21537;-77
2022/11/13 05:01:38;;;;;;;23.80;14.13;;;;;;;8.56;85.92;102024.55;1717594;82;21050;-76
2022/11/13 05:04:24;;;;;;;22.80;13.63;;;;;;;8.55;85.82;102030.22;1717468;82;21508;-77
2022/11/13 05:07:10;;;;;;;16.27;12.37;;;;;;;8.55;85.89;102027.61;1717597;82;21158;-77
2022/11/13 05:09:56;;;;;;;22.00;13.83;;;;;;;8.53;85.85;102033.27;1717449;82;21532;-77
2022/11/13 05:12:41;;;;;;;21.13;13.63;;;;;;;8.53;85.87;102030.66;1717482;82;21975;-77
2022/11/13 05:15:27;;;;;;;20.03;13.63;;;;;;;8.47;85.77;102030.67;1717454;82;21047;-77
2022/11/13 05:18:12;;;;;;;20.80;12.67;;;;;;;8.44;85.83;102031.99;1717545;82;21070;-76
2022/11/13 05:20:58;;;;;;;21.17;13.23;;;;;;;8.39;85.90;102041.13;1717515;82;21532;-77
2022/11/13 05:23:43;;;;;;;19.67;12.17;;;;;;;8.38;86.11;102041.13;1717557;82;21208;-77
2022/11/13 05:26:29;;;;;;;20.17;13.83;;;;;;;8.36;86.19;102038.50;1717458;82;21405;-76
2022/11/13 05:29:15;;;;;;;22.27;13.77;;;;;;;8.37;86.16;102037.64;1717553;82;21007;-76
2022/11/13 05:32:00;;;;;;;24.13;15.73;;;;;;;8.39;86.32;102041.13;1717524;82;21054;-77
2022/11/13 05:34:46;;;;;;;22.93;14.63;;;;;;;8.38;86.14;102039.81;1717571;82;21023;-76
2022/11/13 05:37:31;;;;;;;23.47;15.47;;;;;;;8.30;86.03;102035.90;1717568;82;21145;-77
2022/11/13 05:40:17;;;;;;;23.27;15.50;;;;;;;8.27;86.10;102045.05;1717569;82;20920;-76
2022/11/13 05:43:03;;;;;;;26.80;16.83;;;;;;;8.29;86.28;102038.53;1717534;82;21477;-77
2022/11/13 05:45:48;;;;;;;26.40;16.83;;;;;;;8.26;86.23;102035.48;1717495;82;21460;-76
2022/11/13 05:48:34;;;;;;;27.90;17.30;;;;;;;8.23;86.04;102038.07;1717785;82;21087;-76
2022/11/13 05:51:27;;;;;;;28.77;17.13;;;;;;;8.22;86.25;102036.34;1717498;82;22002;-76
2022/11/13 05:54:12;;;;;;;25.13;17.27;;;;;;;8.23;86.30;102040.69;1717442;82;21055;-76
2022/11/13 05:56:58;;;;;;;28.43;17.07;;;;;;;8.20;86.40;102035.47;1717511;82;21011;-77
2022/11/13 05:59:45;;;;;;;30.03;17.87;;;;;;;8.23;86.40;102030.23;1717533;82;21549;-77
2022/11/13 06:02:30;;;;;;;30.43;18.43;;;;;;;8.20;86.25;102028.53;1717791;82;21094;-76
2022/11/13 06:05:16;;;;;;;27.57;17.70;;;;;;;8.18;86.13;102028.95;1702959;82;21953;-77
2022/11/13 06:08:01;;;;;;;26.27;17.37;;;;;;;8.15;86.12;102021.13;1642844;85;21105;-77
2022/11/13 06:10:46;;;;;;;28.73;18.27;;;;;;;8.11;86.05;102015.90;1632865;86;21011;-77
2022/11/13 06:13:32;;;;;;;29.73;17.27;;;;;;;8.09;86.31;102017.63;1642973;86;21063;-77
2022/11/13 06:16:29;;;;;;;29.80;17.90;;;;;;;8.06;86.30;102013.28;1646385;86;21027;-76
2022/11/13 06:19:14;;;;;;;28.07;17.30;;;;;;;8.08;86.64;102012.84;1645785;86;21139;-76
2022/11/13 06:22:00;;;;;;;28.47;18.60;;;;;;;8.10;86.60;102018.95;1642676;86;20981;-77
2022/11/13 06:24:46;;;;;;;27.90;18.03;;;;;;;8.12;86.59;102020.23;1645435;86;21070;-77
2022/11/13 06:27:31;;;;;;;30.17;18.10;;;;;;;8.14;86.67;102021.98;1649474;86;21129;-76
2022/11/13 06:30:21;;;;;;;25.83;17.97;;;;;;;8.11;86.33;102019.81;1663448;84;21344;-76
2022/11/13 06:33:08;;;;;;;27.60;16.63;;;;;;;8.08;86.46;102022.44;1676344;85;21137;-77
2022/11/13 06:35:53;;;;;;;27.23;16.70;;;;;;;8.09;86.48;102017.63;1682093;85;21066;-77
2022/11/13 06:38:40;;;;;;;30.40;18.23;;;;;;;8.09;86.71;102021.11;1669652;84;21098;-82
2022/11/13 06:41:29;;;;;;;27.43;16.87;;;;;;;8.14;86.62;102023.73;1668911;85;21044;-80
2022/11/13 06:44:15;;;;;;;28.45;17.73;;;;;;;8.11;86.65;102024.59;1668859;85;21093;-78
2022/11/13 06:47:00;;;;;;;29.30;17.03;;;;;;;8.15;86.71;102018.95;1670681;85;21944;-77
2022/11/13 06:49:46;;;;;;;27.30;17.13;;;;;;;8.16;86.63;102017.63;1668719;85;20951;-80
2022/11/13 06:52:31;;;;;;;29.27;18.17;;;;;;;8.15;86.48;102020.27;1668682;84;21054;-76
2022/11/13 06:55:17;;;;;;;26.83;17.00;;;;;;;8.14;86.35;102019.81;1668707;85;21495;-77
2022/11/13 06:58:02;;;;;;;26.10;17.13;;;;;;;8.14;86.50;102019.81;1668787;85;21038;-81
2022/11/13 07:00:47;;;;;;;28.53;18.00;;;;;;;8.17;86.60;102025.02;1668731;85;21151;-75
2022/11/13 07:03:33;;;;;;;30.77;18.00;;;;;;;8.19;86.43;102024.59;1668624;85;21022;-75
2022/11/13 07:06:21;;;;;;;25.50;17.60;;;;;;;8.17;86.39;102024.59;1678221;85;21047;-78
2022/11/13 07:09:07;;;;;;;30.30;18.77;;;;;;;8.19;86.33;102026.77;1684926;85;21046;-75
2022/11/13 07:11:52;;;;;;;28.63;17.43;;;;;;;8.21;86.30;102021.11;1674801;85;21043;-76
2022/11/13 07:14:37;;;;;;;28.30;18.10;;;;;;;8.22;86.33;102021.98;1684573;84;21154;-75
2022/11/13 07:17:23;;;;;;;24.53;17.67;;;;;;;8.25;86.27;102024.14;1675831;85;21038;-76
2022/11/13 07:20:10;;;;;;;25.50;17.03;;;;;;;8.27;86.18;102017.18;1673443;85;21066;-80
2022/11/13 07:23:00;;;;;;;26.10;17.73;;;;;;;8.33;86.52;102018.05;1685216;84;21344;-78
2022/11/13 07:25:45;;;;;;;26.00;17.85;;;;;;;8.40;86.33;102019.38;1684978;85;21122;-81
2022/11/13 07:28:30;;;;;;;26.93;18.23;;;;;;;8.41;86.11;102013.70;1685098;84;22055;-80
2022/11/13 07:31:17;;;;;;;29.63;18.87;;;;;;;8.35;85.82;102005.41;1685059;85;21046;-78
2022/11/13 07:34:02;;;;;;;32.77;19.73;;;;;;;8.38;86.05;102005.84;1675131;85;21050;-76
2022/11/13 07:36:48;;;;;;;30.43;18.90;;;;;;;8.38;85.87;102001.48;1684989;85;21090;-77
2022/11/13 07:39:33;;;;;;;27.03;18.83;;;;;;;8.39;85.98;102003.25;1685139;84;21125;-79
2022/11/13 07:42:18;;;;;;;30.23;19.73;;;;;;;8.42;85.95;102001.06;1673840;85;21976;-75
2022/11/13 07:45:05;;;;;;;26.83;19.23;;;;;;;8.43;85.75;101995.85;1685076;85;21046;-77
2022/11/13 07:47:50;;;;;;;28.77;18.73;;;;;;;8.45;85.84;101990.60;1684953;85;21038;-78
2022/11/13 07:50:38;;;;;;;30.07;20.90;;;;;;;8.47;86.05;101992.34;1676188;84;21086;-78
2022/11/13 07:53:24;;;;;;;30.03;20.30;;;;;;;8.52;85.65;101990.17;1672749;84;21402;-74
2022/11/13 07:56:10;;;;;;;36.47;25.07;;;;;;;8.54;85.70;101991.91;1673150;84;21559;-74
2022/11/13 07:58:55;;;;;;;33.47;20.63;;;;;;;8.54;85.59;101987.98;1650792;85;21137;-74
2022/11/13 08:01:40;;;;;;;34.70;21.30;;;;;;;8.53;85.46;101993.20;1651495;85;21069;-74
2022/11/13 08:04:29;;;;;;;30.07;21.20;;;;;;;8.50;85.27;101990.16;1651056;85;21588;-74
2022/11/13 08:07:14;;;;;;;41.33;26.17;;;;;;;8.47;85.29;102000.63;1651225;85;21069;-75
2022/11/13 08:10:00;;;;;;;31.87;21.43;;;;;;;8.45;85.19;101995.83;1650799;85;22096;-76
2022/11/13 08:12:46;;;;;;;31.17;20.70;;;;;;;8.41;85.31;101991.50;1653932;85;21038;-76
2022/11/13 08:15:33;;;;;;;44.80;26.27;;;;;;;8.42;85.24;102000.63;1651769;85;21357;-76
2022/11/13 08:18:18;;;;;;;31.40;19.73;;;;;;;8.44;85.18;102000.63;1652268;85;21659;-77
2022/11/13 08:21:05;;;;;;;30.37;20.43;;;;;;;8.45;85.30;102002.36;1654136;85;21085;-78
2022/11/13 08:23:52;;;;;;;32.97;22.33;;;;;;;8.46;85.18;102004.98;1650760;85;21355;-75
2022/11/13 08:26:38;;;;;;;29.77;19.07;;;;;;;8.50;85.06;101999.30;1652034;85;21077;-77
2022/11/13 08:29:23;;;;;;;23.70;18.27;;;;;;;8.50;85.10;102004.53;1651204;85;21058;-81
2022/11/13 08:32:09;;;;;;;28.83;18.63;;;;;;;8.51;84.80;102003.67;1650754;85;21524;-77
2022/11/13 08:34:54;;;;;;;28.87;20.87;;;;;;;8.53;84.80;102004.52;1652054;85;21072;-75
2022/11/13 08:37:40;;;;;;;36.10;23.37;;;;;;;8.55;84.77;102001.47;1655405;85;21540;-77
2022/11/13 08:40:26;;;;;;;29.10;19.50;;;;;;;8.57;84.83;102002.78;1674105;84;21047;-78
2022/11/13 08:43:11;;;;;;;27.10;18.67;;;;;;;8.60;84.85;102003.64;1673206;84;21089;-79
2022/11/13 08:45:56;;;;;;;25.27;18.83;;;;;;;8.65;84.87;102003.63;1673806;84;21062;-81
2022/11/13 08:48:42;;;;;;;24.77;17.90;;;;;;;8.68;84.73;102001.88;1673946;84;21061;-75
2022/11/13 08:51:27;;;;;;;23.77;17.43;;;;;;;8.71;84.70;102004.47;1680626;82;21207;-79
2022/11/13 08:54:12;;;;;;;26.80;18.60;;;;;;;8.73;84.66;102008.40;1691455;84;21063;-76
2022/11/13 08:56:58;;;;;;;26.50;18.37;;;;;;;8.77;84.77;102005.33;1684979;84;21031;-75
2022/11/13 08:59:43;;;;;;;23.53;16.57;;;;;;;8.82;84.46;102006.18;1684119;84;21078;-75
2022/11/13 09:02:29;;;;;;;25.13;17.83;;;;;;;8.88;84.77;102011.38;1720740;82;21539;-75
2022/11/13 09:05:14;;;;;;;26.27;17.80;;;;;;;8.94;84.69;101999.58;1722149;82;21208;-77
2022/11/13 09:08:01;;;;;;;25.63;18.90;;;;;;;8.98;84.44;101996.09;1687403;84;22324;-76
2022/11/13 09:10:46;;;;;;;27.73;18.93;;;;;;;9.04;84.36;101995.19;1689942;84;21011;-76
2022/11/13 09:13:33;;;;;;;26.53;19.00;;;;;;;9.07;84.28;102006.94;1690474;84;21089;-76
2022/11/13 09:16:19;;;;;;;25.23;18.33;;;;;;;9.06;83.99;102007.38;1721473;82;21045;-75
2022/11/13 09:19:05;;;;;;;33.37;21.00;;;;;;;9.04;83.81;102010.44;1714736;82;21314;-75
2022/11/13 09:21:51;;;;;;;30.23;19.23;;;;;;;9.05;83.88;102009.55;1719006;82;21042;-81
2022/11/13 09:24:37;;;;;;;44.07;28.60;;;;;;;9.10;83.92;101999.94;1714922;82;21082;-82
2022/11/13 09:27:22;;;;;;;37.53;24.07;;;;;;;9.11;83.82;102004.72;1715107;82;21487;-81
2022/11/13 09:30:09;;;;;;;29.27;21.23;;;;;;;9.14;83.81;102002.98;1715248;82;21357;-76
2022/11/13 09:32:57;;;;;;;26.73;19.13;;;;;;;9.15;83.57;102003.40;1714823;82;22257;-75
2022/11/13 09:35:43;;;;;;;27.07;19.60;;;;;;;9.15;83.50;102003.84;1719373;82;21504;-82
2022/11/13 09:38:30;;;;;;;27.37;18.57;;;;;;;9.15;83.69;101994.24;1715282;82;21537;-80
2022/11/13 09:41:29;;;;;;;25.90;18.40;;;;;;;9.21;83.80;101993.34;1714802;82;21086;-79
2022/11/13 09:44:32;;;;;;;28.27;19.93;;;;;;;9.25;83.60;101987.19;1714985;82;21018;-79
2022/11/13 09:47:31;;;;;;;27.97;18.90;;;;;;;9.32;83.64;101998.51;1715137;82;21817;-78
2022/11/13 09:50:21;;;;;;;30.77;20.35;;;;;;;9.35;83.57;102007.65;1715663;82;21015;-78
2022/11/13 09:53:11;;;;;;;27.55;19.07;;;;;;;9.38;83.53;102002.39;1715114;82;21007;-81
2022/11/13 09:56:27;;;;;;;30.83;20.93;;;;;;;9.38;83.27;102004.56;1715057;82;21062;-80
2022/11/13 09:59:29;;;;;;;26.40;17.90;;;;;;;9.47;83.29;101998.39;1718267;82;21324;-81
2022/11/13 10:02:55;;;;;;;25.33;17.87;;;;;;;9.50;83.08;101989.20;1715054;82;21274;-80
2022/11/13 10:06:21;;;;;;;28.20;19.03;;;;;;;9.51;83.09;101988.34;1721040;82;21488;-81
2022/11/13 10:09:20;;;;;;;26.57;18.33;;;;;;;9.53;83.06;101982.67;1686476;84;21004;-80
2022/11/13 10:12:08;;;;;;;25.65;18.15;;;;;;;9.54;83.02;101971.75;1682633;84;21039;-81
2022/11/13 10:15:06;;;;;;;29.97;19.80;;;;;;;9.54;82.73;101976.98;1692960;84;21512;-80
2022/11/13 10:18:05;;;;;;;32.70;21.50;;;;;;;9.51;82.57;101975.26;1694330;84;21154;-84
2022/11/13 10:21:05;;;;;;;30.57;21.45;;;;;;;9.50;82.58;101970.89;1717329;82;21514;-83
2022/11/13 10:23:55;;;;;;;35.03;22.85;;;;;;;9.52;82.53;101976.13;1702631;82;21018;-84
2022/11/13 10:26:40;;;;;;;31.35;20.92;;;;;;;9.54;82.64;101970.45;1717345;82;21034;-82
2022/11/13 10:29:28;;;;;;;31.37;21.97;;;;;;;9.55;82.31;101968.24;1717281;82;21536;-82
2022/11/13 10:32:32;;;;;;;28.80;20.03;;;;;;;9.53;82.19;101964.77;1717184;82;22215;-80
2022/11/13 10:35:45;;;;;;;36.03;24.67;;;;;;;9.52;82.28;101958.66;1717186;82;21004;-83
2022/11/13 10:38:49;;;;;;;30.03;20.97;;;;;;;9.53;82.21;101966.06;1717177;82;21354;-74
2022/11/13 10:41:47;;;;;;;29.50;20.43;;;;;;;9.54;82.27;101959.53;1717192;82;21480;-77
2022/11/13 10:44:34;;;;;;;30.87;21.50;;;;;;;9.59;82.46;101956.44;1717137;82;21094;-78
2022/11/13 10:47:23;;;;;;;29.63;19.83;;;;;;;9.61;82.22;101952.48;1717138;82;22127;-78
2022/11/13 10:50:24;;;;;;;30.87;21.40;;;;;;;9.61;82.30;101955.09;1717135;82;21018;-80
2022/11/13 10:53:17;;;;;;;30.60;20.50;;;;;;;9.70;82.52;101959.38;1717289;82;21050;-78
2022/11/13 10:56:28;;;;;;;30.03;21.00;;;;;;;9.75;82.35;101960.22;1711925;82;21261;-78
2022/11/13 10:59:19;;;;;;;30.57;21.30;;;;;;;9.78;82.18;101954.54;1717482;82;21022;-80
2022/11/13 11:02:12;;;;;;;27.93;21.40;;;;;;;9.84;82.13;101943.14;1719947;82;21301;-78
2022/11/13 11:05:18;;;;;;;31.73;22.80;;;;;;;9.89;81.86;101946.55;1717489;82;21038;-81
2022/11/13 11:08:10;;;;;;;30.27;21.43;;;;;;;9.87;81.59;101943.11;1717614;82;21023;-77
2022/11/13 11:14:27;;;;;;;35.87;23.67;;;;;;;9.88;81.85;101938.73;1717510;82;21500;-79
2022/11/13 11:17:16;;;;;;;34.10;22.77;;;;;;;9.88;81.48;101934.80;1717614;82;21212;-76
2022/11/13 11:20:29;;;;;;;29.55;22.70;;;;;;;9.81;81.14;101929.63;1717518;82;21011;-79
2022/11/13 11:23:42;;;;;;;49.73;31.80;;;;;;;9.82;81.42;101927.42;1717590;82;21089;-77
2022/11/13 11:26:46;;;;;;;40.10;27.53;;;;;;;9.88;81.98;101918.64;1719117;82;21019;-78
2022/11/13 11:29:46;;;;;;;37.67;23.15;;;;;;;9.90;81.61;101914.27;1698303;82;21980;-77
2022/11/13 11:32:36;;;;;;;31.35;21.87;;;;;;;9.93;81.57;101912.06;1720876;82;21958;-81
2022/11/13 11:35:30;;;;;;;29.57;21.97;;;;;;;10.02;81.92;101910.64;1726736;82;21074;-79
2022/11/13 11:38:26;;;;;;;31.87;22.62;;;;;;;10.17;82.17;101917.45;1719040;82;21552;-81
2022/11/13 11:41:19;;;;;;;40.70;25.70;;;;;;;10.29;81.97;101902.95;1718136;82;20935;-81
2022/11/13 11:44:25;;;;;;;31.93;23.62;;;;;;;10.31;81.50;101907.74;1718283;82;21495;-79
2022/11/13 11:47:17;;;;;;;43.55;27.80;;;;;;;10.32;81.40;101906.84;1720349;82;21972;-80
2022/11/13 11:50:08;;;;;;;33.08;21.80;;;;;;;10.35;81.25;101906.81;1717716;82;21528;-80
2022/11/13 11:53:29;;;;;;;36.08;25.20;;;;;;;10.34;80.99;101909.02;1714613;82;21051;-80
2022/11/13 11:56:39;;;;;;;34.40;23.45;;;;;;;10.34;80.88;101902.46;1712291;82;21078;-82
2022/11/13 11:59:45;;;;;;;36.77;25.05;;;;;;;10.38;81.08;101901.98;1645684;85;21133;-81
2022/11/13 12:03:18;;;;;;;39.10;25.70;;;;;;;10.45;81.07;101897.95;1666358;85;21172;-81
2022/11/13 12:06:57;;;;;;;32.13;22.98;;;;;;;10.45;80.69;101895.33;1662533;85;21058;-81
2022/11/13 12:09:58;;;;;;;31.97;22.98;;;;;;;10.43;80.51;101887.06;1669400;85;21075;-81
2022/11/13 12:13:08;;;;;;;34.35;22.82;;;;;;;10.48;80.62;101877.39;1668913;85;21071;-80
2022/11/13 12:16:24;;;;;;;30.23;20.75;;;;;;;10.50;80.60;101869.04;1669148;85;21078;-81
2022/11/13 12:19:40;;;;;;;29.72;21.20;;;;;;;10.43;80.29;101859.09;1666864;85;22229;-81
2022/11/13 12:22:38;;;;;;;29.50;21.00;;;;;;;10.45;80.24;101858.63;1665928;85;21119;-81
2022/11/13 12:25:47;;;;;;;29.87;21.73;;;;;;;10.49;80.62;101859.00;1668265;85;21083;-81
2022/11/13 12:28:42;;;;;;;31.27;22.35;;;;;;;10.54;80.49;101848.47;1669363;85;21067;-79
2022/11/13 12:31:39;;;;;;;31.95;22.62;;;;;;;10.51;80.18;101843.27;1669195;85;21063;-80
2022/11/13 12:34:42;;;;;;;30.88;22.05;;;;;;;10.54;80.10;101837.98;1671610;85;21309;-83
2022/11/13 12:37:41;;;;;;;34.60;22.75;;;;;;;10.56;80.27;101837.52;1674460;84;20988;-82
2022/11/13 12:40:38;;;;;;;34.63;23.62;;;;;;;10.60;80.05;101842.27;1678842;84;21004;-80
2022/11/13 12:43:49;;;;;;;31.45;21.90;;;;;;;10.56;80.14;101842.77;1676175;84;21019;-77
2022/11/13 12:46:36;;;;;;;;;;;;;;;10.56;80.26;101840.14;1668410;84;21023;-77
2022/11/13 12:49:32;;;;;;;29.95;21.42;;;;;;;10.68;80.74;101828.60;1720681;82;21151;-77
2022/11/13 12:52:22;;;;;;;33.40;22.98;;;;;;;10.79;80.58;101826.69;1718030;82;21015;-77
2022/11/13 12:55:26;;;;;;;29.90;21.82;;;;;;;10.86;80.11;101824.41;1719301;82;20996;-79
2022/11/13 12:58:31;;;;;;;32.95;22.75;;;;;;;10.85;80.00;101820.03;1705983;82;21051;-79
2022/11/13 13:01:20;;;;;;;33.53;22.42;;;;;;;10.91;80.01;101820.37;1718894;82;21043;-82
2022/11/13 13:04:48;;;;;;;33.35;23.10;;;;;;;10.95;79.76;101816.83;1723667;82;21246;-78
2022/11/13 13:07:54;;;;;;;32.67;23.67;;;;;;;10.98;79.63;101812.84;1715907;82;21530;-80